Time;durP1;ratioP1;P1;durP2;ratioP2;P2;SDS_P1;SDS_P2;PMS_P1;PMS_P2;Temp;Humidity;BMP_temperature;BMP_pressure;BME280_temperature;BME280_humidity;BME280_pressure;Samples;Min_cycle;Max_cycle;Signal;HPM_P1;HPM_P2
2022/02/24 00:01:43;;;;;;;3.80;1.00;;;4.60;79.20;;;;;;4997720;28;20991;-76
2022/02/24 00:04:09;;;;;;;2.10;1.20;;;4.70;79.10;;;;;;4999167;28;20353;-76
2022/02/24 00:06:35;;;;;;;3.30;1.23;;;4.70;79.10;;;;;;4999142;28;20184;-77
2022/02/24 00:09:01;;;;;;;1.00;0.83;;;4.70;79.20;;;;;;4995172;28;20193;-77
2022/02/24 00:11:27;;;;;;;4.97;1.47;;;4.70;79.10;;;;;;4995822;28;20200;-77
2022/02/24 00:13:53;;;;;;;0.60;0.60;;;4.70;79.30;;;;;;4995208;28;20186;-76
2022/02/24 00:16:18;;;;;;;0.90;0.90;;;4.70;79.30;;;;;;4997654;28;20184;-77
2022/02/24 00:18:44;;;;;;;0.50;0.50;;;4.70;79.30;;;;;;5000795;28;20208;-76
2022/02/24 00:21:10;;;;;;;1.03;1.03;;;4.70;79.30;;;;;;5009277;28;20189;-77
2022/02/24 00:23:35;;;;;;;0.93;0.87;;;4.70;79.30;;;;;;4998664;28;20200;-77
2022/02/24 00:26:01;;;;;;;1.00;1.00;;;4.70;79.50;;;;;;4994855;28;20906;-77
2022/02/24 00:28:27;;;;;;;0.90;0.67;;;4.60;79.50;;;;;;4994196;28;20178;-77
2022/02/24 00:30:52;;;;;;;2.63;1.07;;;4.60;79.60;;;;;;4993907;28;20779;-77
2022/02/24 00:33:18;;;;;;;0.70;0.70;;;4.60;79.60;;;;;;4997093;28;20217;-76
2022/02/24 00:35:44;;;;;;;0.70;0.70;;;4.60;79.50;;;;;;4993173;28;20216;-77
2022/02/24 00:38:09;;;;;;;2.23;1.07;;;4.60;79.30;;;;;;4998716;28;20584;-77
2022/02/24 00:40:35;;;;;;;3.77;1.23;;;4.50;79.40;;;;;;5003767;28;20260;-77
2022/02/24 00:43:01;;;;;;;0.93;0.90;;;4.40;79.60;;;;;;4994715;28;20765;-76
2022/02/24 00:45:27;;;;;;;0.80;0.80;;;4.40;79.60;;;;;;4997842;28;20191;-78
2022/02/24 00:47:53;;;;;;;1.33;1.03;;;4.30;79.70;;;;;;4988775;28;20737;-77
2022/02/24 00:50:19;;;;;;;1.93;1.20;;;4.20;79.70;;;;;;4995357;28;20196;-77
2022/02/24 00:52:45;;;;;;;2.43;0.70;;;4.20;79.90;;;;;;4993513;28;20687;-77
2022/02/24 00:55:11;;;;;;;3.70;0.97;;;4.10;80.10;;;;;;4995266;28;20182;-76
2022/02/24 00:57:37;;;;;;;5.83;0.93;;;4.10;80.10;;;;;;4996046;28;20599;-76
2022/02/24 01:00:05;;;;;;;4.23;0.70;;;4.00;80.30;;;;;;5002214;28;20213;-77
2022/02/24 01:02:30;;;;;;;1.83;0.80;;;4.00;80.40;;;;;;4998958;28;20264;-77
2022/02/24 01:04:56;;;;;;;2.30;1.00;;;3.90;80.50;;;;;;4995184;28;20185;-77
2022/02/24 01:07:22;;;;;;;0.60;0.60;;;3.90;80.70;;;;;;4994916;28;20181;-77
2022/02/24 01:09:47;;;;;;;1.07;1.07;;;3.80;80.90;;;;;;4999693;28;20178;-77
2022/02/24 01:12:13;;;;;;;5.13;0.63;;;3.80;81.00;;;;;;4996273;28;20284;-77
2022/02/24 01:14:39;;;;;;;8.57;0.83;;;3.70;81.10;;;;;;4997833;28;20902;-77
2022/02/24 01:17:05;;;;;;;2.60;0.57;;;3.70;81.20;;;;;;4997776;28;20659;-77
2022/02/24 01:19:31;;;;;;;0.90;0.80;;;3.60;81.40;;;;;;4997927;28;20707;-77
2022/02/24 01:21:56;;;;;;;2.93;0.70;;;3.60;81.60;;;;;;4995192;28;20263;-77
2022/02/24 01:24:22;;;;;;;3.23;0.80;;;3.50;81.60;;;;;;4998524;28;20575;-77
2022/02/24 01:26:48;;;;;;;4.63;0.60;;;3.50;81.70;;;;;;4993178;28;20185;-77
2022/02/24 01:29:13;;;;;;;1.07;0.80;;;3.50;81.80;;;;;;4993249;28;20189;-77
2022/02/24 01:31:39;;;;;;;0.60;0.60;;;3.40;81.90;;;;;;4995838;28;20185;-77
2022/02/24 01:34:05;;;;;;;0.80;0.80;;;3.40;82.00;;;;;;4997438;28;20184;-77
2022/02/24 01:36:31;;;;;;;1.30;0.87;;;3.40;82.10;;;;;;4994595;28;20265;-77
2022/02/24 01:38:57;;;;;;;2.63;0.80;;;3.40;82.10;;;;;;4992673;28;20233;-77
2022/02/24 01:41:23;;;;;;;0.57;0.57;;;3.30;82.30;;;;;;4995325;28;20193;-77
2022/02/24 01:43:49;;;;;;;3.60;0.70;;;3.30;82.30;;;;;;4993949;28;21858;-77
2022/02/24 01:46:16;;;;;;;0.50;0.50;;;3.30;82.40;;;;;;4994474;28;20283;-77
2022/02/24 01:48:43;;;;;;;2.73;1.30;;;3.30;82.10;;;;;;5010899;28;20185;-76
2022/02/24 01:51:10;;;;;;;0.70;0.60;;;3.30;82.10;;;;;;5009244;28;20185;-77
2022/02/24 01:53:36;;;;;;;0.70;0.70;;;3.30;82.10;;;;;;4992654;28;20224;-76
2022/02/24 01:56:04;;;;;;;1.00;0.80;;;3.30;82.10;;;;;;4994932;28;20185;-76
2022/02/24 01:58:29;;;;;;;0.60;0.60;;;3.20;82.30;;;;;;4995213;28;20201;-77
2022/02/24 02:00:55;;;;;;;0.67;0.67;;;3.20;82.30;;;;;;4998027;28;20189;-78
2022/02/24 02:03:21;;;;;;;0.53;0.53;;;3.20;82.40;;;;;;4992043;28;20192;-77
2022/02/24 02:05:48;;;;;;;0.43;0.43;;;3.20;82.50;;;;;;4996114;28;20685;-78
2022/02/24 02:08:13;;;;;;;0.93;0.80;;;3.20;82.50;;;;;;4996950;28;20192;-77
2022/02/24 02:10:39;;;;;;;0.43;0.43;;;3.10;82.60;;;;;;4993981;28;20734;-76
2022/02/24 02:13:05;;;;;;;1.73;0.63;;;3.10;82.70;;;;;;4995159;28;20205;-77
2022/02/24 02:15:31;;;;;;;0.80;0.80;;;3.10;82.80;;;;;;4990869;28;20185;-76
2022/02/24 02:17:57;;;;;;;4.37;1.03;;;3.00;83.00;;;;;;4997800;28;20186;-77
2022/02/24 02:20:22;;;;;;;0.60;0.60;;;3.00;83.20;;;;;;4995932;28;20169;-78
2022/02/24 02:22:54;;;;;;;0.50;0.50;;;2.90;83.50;;;;;;4994621;28;20276;-78
2022/02/24 02:25:20;;;;;;;1.00;0.53;;;2.90;83.50;;;;;;4994731;28;20207;-78
2022/02/24 02:27:51;;;;;;;1.90;1.27;;;2.90;83.60;;;;;;4996303;28;20758;-76
2022/02/24 02:30:18;;;;;;;0.83;0.83;;;2.90;83.70;;;;;;4994780;28;20210;-78
2022/02/24 02:32:43;;;;;;;0.50;0.50;;;2.80;83.80;;;;;;4994649;28;20214;-77
2022/02/24 02:35:09;;;;;;;0.90;0.90;;;2.80;83.90;;;;;;4993251;28;20184;-77
2022/02/24 02:37:35;;;;;;;3.30;1.20;;;2.80;84.10;;;;;;4996874;28;20256;-77
2022/02/24 02:40:01;;;;;;;0.50;0.50;;;2.70;84.00;;;;;;4995075;28;20964;-77
2022/02/24 02:42:26;;;;;;;0.63;0.63;;;2.70;84.00;;;;;;4996430;28;20659;-77
2022/02/24 02:44:52;;;;;;;2.30;0.90;;;2.70;84.10;;;;;;4997325;28;20649;-77
2022/02/24 02:47:18;;;;;;;1.27;1.00;;;2.70;84.20;;;;;;4996835;28;20181;-77
2022/02/24 02:49:44;;;;;;;1.00;0.70;;;2.70;84.20;;;;;;4993705;28;20184;-77
2022/02/24 02:52:10;;;;;;;1.13;0.47;;;2.70;84.20;;;;;;4991415;28;20225;-77
2022/02/24 02:54:35;;;;;;;0.63;0.63;;;2.70;84.20;;;;;;4992964;28;20907;-77
2022/02/24 02:57:02;;;;;;;1.43;0.73;;;2.60;84.20;;;;;;4998070;28;20185;-76
2022/02/24 02:59:27;;;;;;;0.70;0.70;;;2.60;84.20;;;;;;4993933;28;20189;-77
2022/02/24 03:01:54;;;;;;;3.37;0.40;;;2.60;84.30;;;;;;4996380;28;20557;-78
2022/02/24 03:04:21;;;;;;;0.80;0.80;;;2.50;84.30;;;;;;4991093;28;20189;-77
2022/02/24 03:06:48;;;;;;;3.30;1.00;;;2.50;84.60;;;;;;4994749;28;20272;-77
2022/02/24 03:09:14;;;;;;;1.07;0.67;;;2.50;84.60;;;;;;4993025;28;20933;-77
2022/02/24 03:11:40;;;;;;;2.00;1.00;;;2.50;84.60;;;;;;4993704;28;20184;-77
2022/02/24 03:14:05;;;;;;;1.57;0.67;;;2.50;84.60;;;;;;4992197;28;20185;-78
2022/02/24 03:16:31;;;;;;;0.80;0.80;;;2.50;84.50;;;;;;4992581;28;20654;-77
2022/02/24 03:18:57;;;;;;;0.97;0.90;;;2.50;84.50;;;;;;4991118;28;20263;-78
2022/02/24 03:21:22;;;;;;;0.70;0.70;;;2.50;84.40;;;;;;4991875;28;20189;-76
2022/02/24 03:23:49;;;;;;;3.40;1.00;;;2.50;84.40;;;;;;4988252;28;20362;-76
2022/02/24 03:26:15;;;;;;;1.60;0.60;;;2.50;84.20;;;;;;4992345;28;20178;-77
2022/02/24 03:28:41;;;;;;;1.13;0.93;;;2.50;84.20;;;;;;4995046;28;20619;-77
2022/02/24 03:31:07;;;;;;;3.50;0.60;;;2.50;84.20;;;;;;4995389;28;20177;-77
2022/02/24 03:33:32;;;;;;;0.93;0.93;;;2.50;84.10;;;;;;4990711;28;20209;-78
2022/02/24 03:35:59;;;;;;;2.00;0.83;;;2.50;84.20;;;;;;4998681;28;20196;-78
2022/02/24 03:38:24;;;;;;;0.70;0.70;;;2.50;84.20;;;;;;4994867;28;20340;-78
2022/02/24 03:40:50;;;;;;;0.80;0.80;;;2.50;84.30;;;;;;4991834;28;20755;-78
2022/02/24 03:43:16;;;;;;;0.43;0.43;;;2.50;84.30;;;;;;4994999;28;20267;-77
2022/02/24 03:45:41;;;;;;;0.70;0.70;;;2.50;84.30;;;;;;4993001;28;20247;-77
2022/02/24 03:48:07;;;;;;;0.70;0.67;;;2.50;84.40;;;;;;4995813;28;20250;-77
2022/02/24 03:50:33;;;;;;;0.77;0.77;;;2.50;84.50;;;;;;4997069;28;20181;-77
2022/02/24 03:52:59;;;;;;;2.40;0.57;;;2.50;84.60;;;;;;4991839;28;20775;-77
2022/02/24 03:55:24;;;;;;;0.80;0.80;;;2.50;84.70;;;;;;4992355;28;20189;-77
2022/02/24 03:57:50;;;;;;;1.50;0.60;;;2.50;84.60;;;;;;4995300;28;20201;-76
2022/02/24 04:00:16;;;;;;;0.53;0.53;;;2.50;84.70;;;;;;4994520;28;20190;-76
2022/02/24 04:02:43;;;;;;;1.03;0.70;;;2.50;84.60;;;;;;4998817;28;20229;-76
2022/02/24 04:05:13;;;;;;;0.70;0.70;;;2.50;84.50;;;;;;4997237;28;20236;-76
2022/02/24 04:07:39;;;;;;;0.50;0.50;;;2.60;84.20;;;;;;4998679;28;20944;-76
2022/02/24 04:10:05;;;;;;;0.67;0.60;;;2.60;84.10;;;;;;4996995;28;20181;-77
2022/02/24 04:12:31;;;;;;;0.53;0.53;;;2.60;84.00;;;;;;4993506;28;20210;-77
2022/02/24 04:14:57;;;;;;;3.80;0.90;;;2.70;83.80;;;;;;4998497;28;20201;-77
2022/02/24 04:17:23;;;;;;;1.93;0.77;;;2.70;83.70;;;;;;4997217;28;20615;-78
2022/02/24 04:19:48;;;;;;;1.70;0.80;;;2.60;83.60;;;;;;4993030;28;20188;-78
2022/02/24 04:22:14;;;;;;;0.50;0.50;;;2.70;83.60;;;;;;4997187;28;20239;-78
2022/02/24 04:24:40;;;;;;;0.57;0.50;;;2.70;83.40;;;;;;4999238;28;20177;-77
2022/02/24 04:27:06;;;;;;;0.73;0.73;;;2.70;83.30;;;;;;4998968;28;20647;-77
2022/02/24 04:29:32;;;;;;;0.53;0.50;;;2.70;83.20;;;;;;4997359;28;20185;-77
2022/02/24 04:31:58;;;;;;;0.90;0.90;;;2.70;83.00;;;;;;4995712;28;20217;-77
2022/02/24 04:34:24;;;;;;;2.53;0.90;;;2.70;82.90;;;;;;4991492;28;20264;-77
2022/02/24 04:36:49;;;;;;;0.50;0.50;;;2.70;82.80;;;;;;4997737;28;20243;-77
2022/02/24 04:39:15;;;;;;;0.33;0.33;;;2.70;82.70;;;;;;4991564;28;20790;-76
2022/02/24 04:41:41;;;;;;;1.47;0.80;;;2.70;82.50;;;;;;5000218;28;20181;-77
2022/02/24 04:44:07;;;;;;;0.80;0.80;;;2.70;82.40;;;;;;4996353;28;20505;-77
2022/02/24 04:46:32;;;;;;;0.87;0.70;;;2.70;82.20;;;;;;4996390;28;20201;-77
2022/02/24 04:48:59;;;;;;;0.60;0.60;;;2.70;82.20;;;;;;4994407;28;20372;-77
2022/02/24 04:51:25;;;;;;;0.50;0.50;;;2.70;82.00;;;;;;4995086;28;20672;-77
2022/02/24 04:53:51;;;;;;;0.63;0.63;;;2.80;81.80;;;;;;4997617;28;20224;-78
2022/02/24 04:56:16;;;;;;;0.53;0.53;;;2.70;81.70;;;;;;4997530;28;20185;-77
2022/02/24 04:58:42;;;;;;;0.83;0.80;;;2.80;81.70;;;;;;4995668;28;20195;-77
2022/02/24 05:01:08;;;;;;;0.33;0.33;;;2.80;81.80;;;;;;4997871;28;20189;-77
2022/02/24 05:03:33;;;;;;;0.30;0.30;;;2.80;81.80;;;;;;4996106;28;20303;-77
2022/02/24 05:05:59;;;;;;;0.40;0.40;;;2.90;81.40;;;;;;4995723;28;20193;-77
2022/02/24 05:08:25;;;;;;;4.30;0.57;;;2.90;81.40;;;;;;5000521;28;20188;-77
2022/02/24 05:10:52;;;;;;;0.63;0.63;;;2.90;81.20;;;;;;4998218;28;20185;-78
2022/02/24 05:13:18;;;;;;;0.70;0.63;;;2.90;81.10;;;;;;4993903;28;20216;-77
2022/02/24 05:15:44;;;;;;;0.67;0.67;;;2.90;81.00;;;;;;4996231;28;20177;-78
2022/02/24 05:18:09;;;;;;;1.13;0.60;;;2.90;80.80;;;;;;4994774;28;20208;-78
2022/02/24 05:20:36;;;;;;;0.60;0.60;;;3.00;80.50;;;;;;4992918;28;20554;-78
2022/02/24 05:23:02;;;;;;;1.70;0.70;;;3.00;80.40;;;;;;4995295;28;20182;-79
2022/02/24 05:25:30;;;;;;;0.93;0.93;;;2.90;80.10;;;;;;4993364;28;20185;-78
2022/02/24 05:27:56;;;;;;;0.57;0.50;;;2.90;80.30;;;;;;4996430;28;20323;-77
2022/02/24 05:30:22;;;;;;;0.43;0.43;;;2.90;80.10;;;;;;4997947;28;20192;-76
2022/02/24 05:32:48;;;;;;;0.40;0.40;;;2.90;80.10;;;;;;4998905;28;20277;-78
2022/02/24 05:35:14;;;;;;;1.60;0.70;;;2.90;80.00;;;;;;5000181;28;20185;-78
2022/02/24 05:37:39;;;;;;;0.60;0.60;;;2.90;80.00;;;;;;4999236;28;20211;-78
2022/02/24 05:40:06;;;;;;;0.60;0.60;;;2.90;79.90;;;;;;4998394;28;20616;-78
2022/02/24 05:42:31;;;;;;;3.30;0.50;;;2.90;80.00;;;;;;4997154;28;20200;-80
2022/02/24 05:44:57;;;;;;;0.50;0.50;;;2.90;80.30;;;;;;4994792;28;20646;-78
2022/02/24 05:47:23;;;;;;;1.50;1.07;;;2.80;80.10;;;;;;4996899;28;20195;-75
2022/02/24 05:49:48;;;;;;;0.63;0.63;;;2.80;80.10;;;;;;4998828;28;20189;-76
2022/02/24 05:52:14;;;;;;;0.90;0.90;;;2.80;80.30;;;;;;4993346;28;20307;-75
2022/02/24 05:54:40;;;;;;;0.70;0.70;;;2.80;80.10;;;;;;4994462;28;20735;-76
2022/02/24 05:57:06;;;;;;;1.10;0.73;;;2.80;80.40;;;;;;4995082;28;20189;-75
2022/02/24 05:59:31;;;;;;;0.60;0.60;;;2.80;80.40;;;;;;4995251;28;20204;-75
2022/02/24 06:01:57;;;;;;;0.73;0.60;;;2.80;80.40;;;;;;4997730;28;20243;-79
2022/02/24 06:04:24;;;;;;;1.33;0.90;;;2.80;80.50;;;;;;4994005;28;20195;-75
2022/02/24 06:06:51;;;;;;;0.77;0.67;;;2.80;80.40;;;;;;4997230;28;20324;-77
2022/02/24 06:09:16;;;;;;;0.60;0.60;;;2.80;80.40;;;;;;4996251;28;20190;-77
2022/02/24 06:11:42;;;;;;;0.80;0.80;;;2.80;80.50;;;;;;4989059;28;20271;-77
2022/02/24 06:14:08;;;;;;;1.97;0.70;;;2.70;80.40;;;;;;4999726;28;20177;-74
2022/02/24 06:16:33;;;;;;;1.67;0.87;;;2.80;80.50;;;;;;4995513;28;20196;-77
2022/02/24 06:18:59;;;;;;;3.50;0.93;;;2.80;80.50;;;;;;4994986;28;20311;-77
2022/02/24 06:21:25;;;;;;;0.83;0.83;;;2.90;80.50;;;;;;4996666;28;20186;-76
2022/02/24 06:23:51;;;;;;;0.43;0.43;;;2.90;80.50;;;;;;4999941;28;20185;-76
2022/02/24 06:26:17;;;;;;;2.83;1.20;;;3.00;80.10;;;;;;4996790;28;20185;-76
2022/02/24 06:28:42;;;;;;;1.27;0.90;;;3.00;80.00;;;;;;4998021;28;20192;-79
2022/02/24 06:31:08;;;;;;;1.00;0.97;;;3.00;80.00;;;;;;4998307;28;20177;-79
2022/02/24 06:33:35;;;;;;;1.77;1.10;;;3.10;80.10;;;;;;4993155;28;20213;-78
2022/02/24 06:36:02;;;;;;;1.07;1.07;;;3.10;79.90;;;;;;4994880;28;20257;-79
2022/02/24 06:38:28;;;;;;;3.67;0.67;;;3.20;79.90;;;;;;4998619;28;20173;-78
2022/02/24 06:40:53;;;;;;;6.40;1.30;;;3.20;79.30;;;;;;4991396;28;21669;-78
2022/02/24 06:43:20;;;;;;;2.77;1.17;;;3.30;79.20;;;;;;5000442;28;20557;-79
2022/02/24 06:45:46;;;;;;;2.43;0.77;;;3.30;79.10;;;;;;4996694;28;20195;-78
2022/02/24 06:48:11;;;;;;;3.33;1.47;;;3.40;78.70;;;;;;4998048;28;20283;-78
2022/02/24 06:50:37;;;;;;;1.20;0.67;;;3.40;78.20;;;;;;4994920;28;20288;-78
2022/02/24 06:53:03;;;;;;;0.70;0.70;;;3.50;78.00;;;;;;4989313;28;20733;-78
2022/02/24 06:55:29;;;;;;;0.60;0.60;;;3.50;77.90;;;;;;4991827;28;20185;-79
2022/02/24 06:57:55;;;;;;;1.20;1.10;;;3.60;78.40;;;;;;4997255;28;20181;-79
2022/02/24 07:00:22;;;;;;;1.13;0.60;;;3.70;78.20;;;;;;4997337;28;20177;-78
2022/02/24 07:02:48;;;;;;;0.57;0.57;;;3.80;78.20;;;;;;4995492;28;20184;-78
2022/02/24 07:05:14;;;;;;;2.00;1.00;;;3.90;78.20;;;;;;4992242;28;20181;-78
2022/02/24 07:07:40;;;;;;;0.83;0.83;;;4.00;77.90;;;;;;4988285;28;20543;-78
2022/02/24 07:10:12;;;;;;;0.70;0.70;;;4.10;77.60;;;;;;4994943;28;20252;-78
2022/02/24 07:12:42;;;;;;;1.00;0.90;;;4.20;77.40;;;;;;4992638;28;20256;-78
2022/02/24 07:15:09;;;;;;;1.50;0.90;;;4.30;77.30;;;;;;4990543;28;20188;-78
2022/02/24 07:17:43;;;;;;;2.23;0.97;;;4.40;77.20;;;;;;4993686;28;20676;-78
2022/02/24 07:20:11;;;;;;;0.63;0.63;;;4.60;76.90;;;;;;4994662;28;20180;-78
2022/02/24 07:22:37;;;;;;;1.57;0.60;;;4.60;76.40;;;;;;4993672;28;20188;-78
2022/02/24 07:25:04;;;;;;;1.27;0.60;;;4.80;76.10;;;;;;4994450;28;20185;-77
2022/02/24 07:27:32;;;;;;;0.40;0.40;;;5.00;74.70;;;;;;4993612;28;20177;-77
2022/02/24 07:29:57;;;;;;;3.13;0.50;;;5.10;74.00;;;;;;4989109;28;20569;-78
2022/02/24 07:32:23;;;;;;;0.50;0.50;;;5.40;73.80;;;;;;4999146;28;20209;-78
2022/02/24 07:34:49;;;;;;;0.63;0.63;;;5.70;73.20;;;;;;4992617;28;20185;-78
2022/02/24 07:37:15;;;;;;;3.30;0.70;;;6.10;72.30;;;;;;4992828;28;20731;-78
2022/02/24 07:39:40;;;;;;;6.00;0.80;;;6.70;71.50;;;;;;4995107;28;20182;-78
2022/02/24 07:42:06;;;;;;;0.63;0.50;;;7.20;70.30;;;;;;4997692;28;20622;-78
2022/02/24 07:44:32;;;;;;;1.80;0.70;;;7.60;70.00;;;;;;4999450;28;20181;-79
2022/02/24 07:46:58;;;;;;;0.83;0.83;;;7.90;67.90;;;;;;4996172;28;20197;-79
2022/02/24 07:49:25;;;;;;;2.37;0.73;;;8.10;67.60;;;;;;4997315;28;20189;-78
2022/02/24 07:51:52;;;;;;;0.80;0.60;;;8.20;67.30;;;;;;5005450;28;20216;-79
2022/02/24 07:54:22;;;;;;;0.73;0.73;;;8.20;66.30;;;;;;4999689;28;20174;-79
2022/02/24 07:56:50;;;;;;;0.50;0.50;;;8.10;65.60;;;;;;4997223;28;20263;-76
2022/02/24 07:59:16;;;;;;;0.60;0.60;;;7.90;65.60;;;;;;4995520;28;20591;-78
2022/02/24 08:01:42;;;;;;;0.80;0.73;;;7.80;65.90;;;;;;4995502;28;20189;-78
2022/02/24 08:04:08;;;;;;;1.00;0.90;;;7.60;65.90;;;;;;4996122;28;20174;-78
2022/02/24 08:06:34;;;;;;;0.30;0.30;;;7.60;66.50;;;;;;4999554;28;20185;-78
2022/02/24 08:09:00;;;;;;;0.60;0.60;;;7.60;67.10;;;;;;4999738;28;20186;-79
2022/02/24 08:11:26;;;;;;;2.00;0.70;;;7.60;66.60;;;;;;4995494;28;20177;-78
2022/02/24 08:13:52;;;;;;;1.03;1.00;;;7.50;66.30;;;;;;5000611;28;20228;-78
2022/02/24 08:16:18;;;;;;;1.30;0.90;;;7.50;66.90;;;;;;4998710;28;20700;-78
2022/02/24 08:18:44;;;;;;;1.00;1.00;;;7.40;67.20;;;;;;5001759;28;20208;-78
2022/02/24 08:21:09;;;;;;;0.80;0.80;;;7.40;67.10;;;;;;4991987;28;20260;-78
2022/02/24 08:23:35;;;;;;;0.80;0.80;;;7.40;67.40;;;;;;4999573;28;20718;-78
2022/02/24 08:26:01;;;;;;;1.10;0.80;;;7.40;67.10;;;;;;4993313;28;20185;-78
2022/02/24 08:28:27;;;;;;;0.80;0.60;;;7.30;66.40;;;;;;4994323;28;20173;-78
2022/02/24 08:30:53;;;;;;;2.30;0.60;;;7.30;66.50;;;;;;4993569;28;20193;-78
2022/02/24 08:33:18;;;;;;;0.60;0.60;;;7.30;66.80;;;;;;4996293;28;20275;-78
2022/02/24 08:35:44;;;;;;;0.70;0.70;;;7.20;67.10;;;;;;4995263;28;20698;-79
2022/02/24 08:38:10;;;;;;;4.93;0.90;;;7.30;67.00;;;;;;4995802;28;20185;-78
2022/02/24 08:40:35;;;;;;;0.80;0.70;;;7.20;66.40;;;;;;4997355;28;20187;-78
2022/02/24 08:43:01;;;;;;;0.30;0.30;;;7.20;66.70;;;;;;4997417;28;20208;-79
2022/02/24 08:45:28;;;;;;;0.60;0.60;;;7.10;66.30;;;;;;4996492;28;20189;-78
2022/02/24 08:47:54;;;;;;;0.20;0.20;;;7.10;66.50;;;;;;4999399;28;20226;-79
2022/02/24 08:50:20;;;;;;;0.27;0.27;;;7.00;66.60;;;;;;4996512;28;20578;-78
2022/02/24 08:52:46;;;;;;;2.83;0.50;;;7.00;66.90;;;;;;4998591;28;20229;-79
2022/02/24 08:55:12;;;;;;;0.40;0.40;;;6.90;66.90;;;;;;4998533;28;20181;-79
2022/02/24 08:57:38;;;;;;;0.43;0.43;;;6.90;67.40;;;;;;5000289;28;20205;-79
2022/02/24 09:00:06;;;;;;;0.43;0.43;;;6.80;67.80;;;;;;4996562;28;20188;-79
2022/02/24 09:02:32;;;;;;;0.30;0.30;;;6.90;68.20;;;;;;4999909;28;20276;-79
2022/02/24 09:04:58;;;;;;;0.50;0.50;;;6.90;68.10;;;;;;4999861;28;20288;-79
2022/02/24 09:07:23;;;;;;;0.77;0.60;;;6.90;68.50;;;;;;4995739;28;20228;-80
2022/02/24 09:09:49;;;;;;;0.50;0.50;;;6.90;68.40;;;;;;4998501;28;20668;-80
2022/02/24 09:12:15;;;;;;;1.20;0.30;;;6.90;67.90;;;;;;4996206;28;20213;-78
2022/02/24 09:14:40;;;;;;;0.50;0.50;;;6.90;68.50;;;;;;5002255;28;20636;-79
2022/02/24 09:17:06;;;;;;;0.40;0.40;;;6.90;69.00;;;;;;5013271;28;20272;-79
2022/02/24 09:19:32;;;;;;;0.77;0.50;;;6.90;69.00;;;;;;4996060;28;20284;-79
2022/02/24 09:21:58;;;;;;;0.57;0.57;;;6.90;69.10;;;;;;4997248;28;20177;-79
2022/02/24 09:24:24;;;;;;;3.43;0.53;;;7.00;69.60;;;;;;5002183;28;20272;-79
2022/02/24 09:26:50;;;;;;;0.33;0.33;;;7.10;70.20;;;;;;4996206;28;20191;-79
2022/02/24 09:29:16;;;;;;;0.43;0.43;;;7.20;70.50;;;;;;4997525;28;20192;-79
2022/02/24 09:31:42;;;;;;;0.40;0.40;;;7.20;70.50;;;;;;4993670;28;20181;-78
2022/02/24 09:34:08;;;;;;;0.50;0.50;;;7.30;70.60;;;;;;4998657;28;20749;-79
2022/02/24 09:36:34;;;;;;;0.40;0.40;;;7.40;70.70;;;;;;4995381;28;20185;-78
2022/02/24 09:38:59;;;;;;;0.30;0.30;;;7.40;70.90;;;;;;4997312;28;20208;-79
2022/02/24 09:41:26;;;;;;;0.30;0.30;;;7.50;71.10;;;;;;4992925;28;20254;-79
2022/02/24 09:43:53;;;;;;;0.47;0.47;;;7.50;71.50;;;;;;4993786;28;20271;-78
2022/02/24 09:46:19;;;;;;;0.40;0.40;;;7.50;72.10;;;;;;4993333;28;20714;-79
2022/02/24 09:48:46;;;;;;;0.30;0.30;;;7.70;72.10;;;;;;4995025;28;20185;-78
2022/02/24 09:51:19;;;;;;;3.20;0.40;;;7.80;71.70;;;;;;4990638;28;20638;-78
2022/02/24 09:53:46;;;;;;;0.83;0.50;;;8.10;71.30;;;;;;4995021;28;20592;-78
2022/02/24 09:56:19;;;;;;;0.43;0.43;;;8.30;71.10;;;;;;4997884;28;20198;-78
2022/02/24 09:58:46;;;;;;;0.33;0.33;;;8.80;71.70;;;;;;4990725;28;20189;-78
2022/02/24 10:01:14;;;;;;;0.50;0.50;;;9.90;71.30;;;;;;4998114;28;20660;-79
2022/02/24 10:03:46;;;;;;;0.30;0.30;;;11.20;69.90;;;;;;4993283;28;20181;-78
2022/02/24 10:06:14;;;;;;;0.37;0.37;;;12.70;67.30;;;;;;4990138;28;20182;-79
2022/02/24 10:08:46;;;;;;;0.47;0.47;;;14.00;63.60;;;;;;4989501;28;20188;-78
2022/02/24 10:11:17;;;;;;;0.47;0.47;;;14.60;61.70;;;;;;4988128;28;20220;-78
2022/02/24 10:13:59;;;;;;;1.55;0.70;;;14.80;60.20;;;;;;4999360;28;20345;-78
2022/02/24 10:16:27;;;;;;;0.60;0.60;;;14.70;59.40;;;;;;4990777;28;20189;-79
2022/02/24 10:18:54;;;;;;;0.50;0.50;;;14.30;59.10;;;;;;4993273;28;20193;-78
2022/02/24 10:21:20;;;;;;;0.80;0.80;;;13.80;59.20;;;;;;4991250;28;20181;-79
2022/02/24 10:23:48;;;;;;;0.95;0.95;;;13.40;59.60;;;;;;4994894;28;20185;-78
2022/02/24 10:26:16;;;;;;;0.60;0.60;;;13.10;60.80;;;;;;4992448;28;20181;-79
2022/02/24 10:28:50;;;;;;;0.50;0.50;;;12.90;60.20;;;;;;4991479;28;20182;-78
2022/02/24 10:31:17;;;;;;;0.65;0.52;;;12.70;60.50;;;;;;4997026;28;20181;-78
2022/02/24 10:33:48;;;;;;;0.30;0.30;;;12.30;60.00;;;;;;4995219;28;20213;-78
2022/02/24 10:36:24;;;;;;;0.60;0.38;;;12.10;60.60;;;;;;4993641;28;20177;-78
2022/02/24 10:39:08;;;;;;;1.65;0.43;;;11.70;60.30;;;;;;4994184;28;20199;-79
2022/02/24 10:41:38;;;;;;;1.38;0.70;;;11.50;61.10;;;;;;4995672;28;20747;-79
2022/02/24 10:44:20;;;;;;;0.60;0.60;;;11.30;61.80;;;;;;4990728;28;20182;-77
2022/02/24 10:47:13;;;;;;;0.43;0.43;;;11.00;62.10;;;;;;4995771;28;20256;-79
2022/02/24 10:49:41;;;;;;;0.90;0.35;;;10.70;62.80;;;;;;4997022;28;20182;-79
2022/02/24 10:52:14;;;;;;;0.38;0.38;;;10.50;62.50;;;;;;4998574;28;20239;-79
2022/02/24 10:54:59;;;;;;;0.40;0.40;;;10.30;63.20;;;;;;4993896;28;20192;-79
2022/02/24 10:57:26;;;;;;;0.40;0.40;;;10.10;63.10;;;;;;4995505;28;20906;-79
2022/02/24 10:59:54;;;;;;;0.40;0.40;;;10.00;63.60;;;;;;4994250;28;20189;-79
2022/02/24 11:02:21;;;;;;;0.45;0.45;;;10.00;64.20;;;;;;4992541;28;20181;-79
2022/02/24 11:04:47;;;;;;;0.52;0.52;;;10.10;64.10;;;;;;4994219;28;20264;-79
2022/02/24 11:07:13;;;;;;;0.77;0.60;;;10.30;64.00;;;;;;4989918;28;20182;-79
2022/02/24 11:09:41;;;;;;;0.40;0.40;;;10.40;63.50;;;;;;4993322;28;20614;-79
2022/02/24 11:12:11;;;;;;;0.30;0.30;;;10.40;62.20;;;;;;4998715;28;20209;-78
2022/02/24 11:14:40;;;;;;;4.23;0.87;;;10.20;62.50;;;;;;4998827;28;20578;-78
2022/02/24 11:17:10;;;;;;;0.80;0.47;;;10.20;63.10;;;;;;5001102;28;20181;-79
2022/02/24 11:19:37;;;;;;;0.50;0.50;;;10.20;63.20;;;;;;5001265;28;20181;-78
2022/02/24 11:22:04;;;;;;;0.30;0.30;;;10.20;62.80;;;;;;4992112;28;20176;-78
2022/02/24 11:24:30;;;;;;;0.40;0.40;;;10.20;63.00;;;;;;4996053;28;20173;-78
2022/02/24 11:27:19;;;;;;;0.43;0.37;;;10.40;63.20;;;;;;4998587;28;20773;-79
2022/02/24 11:29:50;;;;;;;0.40;0.40;;;10.50;62.80;;;;;;4998300;28;20181;-79
2022/02/24 11:32:20;;;;;;;0.50;0.50;;;10.60;63.10;;;;;;4999612;28;20274;-79
2022/02/24 11:34:54;;;;;;;0.73;0.60;;;10.80;62.80;;;;;;4997368;28;20197;-79
2022/02/24 11:37:22;;;;;;;0.40;0.40;;;11.00;62.90;;;;;;4997716;28;20180;-79
2022/02/24 11:39:48;;;;;;;0.45;0.45;;;11.70;61.80;;;;;;4997558;28;20181;-79
2022/02/24 11:42:25;;;;;;;0.50;0.50;;;12.00;60.40;;;;;;4992387;28;20698;-78
2022/02/24 11:44:50;;;;;;;0.40;0.32;;;12.00;60.60;;;;;;4997045;28;20772;-79
2022/02/24 11:47:16;;;;;;;0.40;0.40;;;12.00;59.80;;;;;;4994626;28;20177;-79
2022/02/24 11:49:54;;;;;;;1.33;0.40;;;11.70;59.30;;;;;;5002238;28;20272;-78
2022/02/24 11:52:23;;;;;;;0.52;0.40;;;11.40;59.20;;;;;;4991235;28;20293;-78
2022/02/24 11:54:50;;;;;;;0.50;0.50;;;11.20;60.40;;;;;;4999176;28;20200;-78
2022/02/24 11:57:32;;;;;;;0.50;0.50;;;11.30;61.30;;;;;;5013604;28;20196;-80
2022/02/24 12:00:19;;;;;;;2.78;0.60;;;11.40;61.10;;;;;;5000213;28;20184;-77
2022/02/24 12:02:47;;;;;;;0.68;0.30;;;11.40;60.80;;;;;;4988759;28;21060;-80
2022/02/24 12:05:18;;;;;;;0.40;0.40;;;11.30;61.20;;;;;;5000501;28;20169;-78
2022/02/24 12:08:09;;;;;;;0.40;0.40;;;11.20;61.00;;;;;;4999012;28;20224;-78
2022/02/24 12:10:46;;;;;;;0.40;0.40;;;10.80;60.60;;;;;;4991019;28;20267;-78
2022/02/24 12:13:30;;;;;;;0.40;0.40;;;10.40;61.70;;;;;;5000033;28;20209;-79
2022/02/24 12:16:23;;;;;;;0.35;0.35;;;10.00;61.50;;;;;;4994364;28;20253;-77
2022/02/24 12:18:50;;;;;;;0.37;0.37;;;9.60;62.60;;;;;;4996178;28;20254;-78
2022/02/24 12:21:36;;;;;;;2.20;0.40;;;9.40;62.90;;;;;;4995147;28;20186;-79
2022/02/24 12:24:05;;;;;;;1.23;0.30;;;9.20;63.90;;;;;;4999814;28;20248;-78
2022/02/24 12:26:39;;;;;;;1.40;0.50;;;9.20;64.30;;;;;;4999617;28;20426;-78
2022/02/24 12:29:28;;;;;;;0.40;0.40;;;9.40;64.20;;;;;;4994995;28;20189;-78
2022/02/24 12:31:59;;;;;;;0.30;0.30;;;9.60;63.80;;;;;;5013274;28;20659;-78
2022/02/24 12:34:28;;;;;;;2.47;0.63;;;9.80;62.40;;;;;;4997820;28;20178;-78
2022/02/24 12:37:08;;;;;;;0.40;0.40;;;9.50;62.50;;;;;;4998068;28;20180;-80
2022/02/24 12:39:36;;;;;;;0.43;0.43;;;9.40;62.70;;;;;;5008267;28;20582;-78
2022/02/24 12:42:04;;;;;;;0.87;0.50;;;9.40;63.00;;;;;;4994938;28;20677;-78
2022/02/24 12:44:35;;;;;;;0.40;0.40;;;9.70;63.80;;;;;;4988668;28;20209;-78
2022/02/24 12:47:03;;;;;;;0.30;0.30;;;10.20;62.10;;;;;;4996039;28;20184;-78
2022/02/24 12:49:52;;;;;;;3.30;0.37;;;10.30;60.80;;;;;;4997065;28;20178;-79
2022/02/24 12:52:24;;;;;;;0.70;0.60;;;10.20;61.00;;;;;;4995374;28;20205;-78
2022/02/24 12:54:50;;;;;;;0.60;0.60;;;10.00;61.40;;;;;;4999821;28;20439;-78
2022/02/24 12:57:16;;;;;;;1.80;0.80;;;10.30;62.70;;;;;;4994223;28;20178;-78